Time;durP1;ratioP1;P1;durP2;ratioP2;P2;SDS_P1;SDS_P2;PMS_P1;PMS_P2;Temp;Humidity;BMP_temperature;BMP_pressure;BME280_temperature;BME280_humidity;BME280_pressure;Samples;Min_cycle;Max_cycle;Signal;HPM_P1;HPM_P2
2023/12/31 00:00:46;;;;;;;;;5.25;4.75;;;;;10.92;71.05;99727.97;5023615;28;60714;-69
2023/12/31 00:03:11;;;;;;;;;5.00;5.00;;;;;10.94;71.32;99699.13;5037772;28;45346;-70
2023/12/31 00:05:36;;;;;;;;;5.50;4.50;;;;;10.92;71.18;99686.09;4996024;28;74945;-70
2023/12/31 00:08:02;;;;;;;;;6.25;5.00;;;;;10.92;71.03;99693.94;5004749;28;74307;-70
2023/12/31 00:10:27;;;;;;;;;8.00;4.75;;;;;10.92;71.29;99685.25;5031627;28;45317;-70
2023/12/31 00:12:53;;;;;;;;;6.00;3.75;;;;;10.90;71.08;99659.16;5041532;28;45285;-70
2023/12/31 00:15:18;;;;;;;;;6.00;4.25;;;;;10.93;71.12;99663.41;5030060;28;45504;-70
2023/12/31 00:17:44;;;;;;;;;8.00;4.00;;;;;10.95;71.38;99654.56;5037258;28;58351;-70
2023/12/31 00:20:10;;;;;;;;;3.25;3.00;;;;;10.96;70.98;99661.50;5041833;28;45290;-70
2023/12/31 00:22:35;;;;;;;;;9.75;4.00;;;;;10.96;70.99;99642.31;5030414;28;45534;-71
2023/12/31 00:25:01;;;;;;;;;7.00;4.00;;;;;10.96;71.17;99648.41;5019534;28;48053;-70
2023/12/31 00:27:26;;;;;;;;;6.50;3.75;;;;;10.95;71.30;99643.25;5026352;28;69125;-69
2023/12/31 00:29:52;;;;;;;;;5.25;4.50;;;;;10.93;71.54;99632.84;5031503;28;70014;-69
2023/12/31 00:32:17;;;;;;;;;4.75;4.00;;;;;10.93;71.36;99613.69;5030665;28;45385;-70
2023/12/31 00:34:42;;;;;;;;;6.25;4.00;;;;;10.93;71.32;99622.38;5031925;28;45264;-69
2023/12/31 00:37:08;;;;;;;;;5.00;4.75;;;;;10.95;71.41;99598.75;5040635;28;72165;-70
2023/12/31 00:39:33;;;;;;;;;7.50;4.00;;;;;10.93;71.34;99595.34;5023059;28;45433;-69
2023/12/31 00:41:58;;;;;;;;;6.75;4.00;;;;;10.92;71.56;99604.13;5027191;28;69792;-69
2023/12/31 00:44:24;;;;;;;;;6.50;5.00;;;;;10.94;71.54;99621.47;5026041;28;47365;-71
2023/12/31 00:46:50;;;;;;;;;5.50;5.00;;;;;10.96;71.44;99605.66;5038383;28;72337;-70
2023/12/31 00:49:16;;;;;;;;;5.50;5.50;;;;;10.95;71.68;99589.13;5041191;28;45339;-71
2023/12/31 00:51:41;;;;;;;;;5.00;5.00;;;;;11.00;71.67;99588.91;5040062;28;45483;-70
2023/12/31 00:54:06;;;;;;;;;4.50;3.75;;;;;10.99;71.45;99582.81;5039263;28;45963;-70
2023/12/31 00:56:32;;;;;;;;;10.25;5.00;;;;;11.00;71.92;99568.81;5035859;28;65384;-70
2023/12/31 00:58:57;;;;;;;;;3.00;2.50;;;;;11.03;71.53;99583.53;5013255;28;69477;-71
2023/12/31 01:01:22;;;;;;;;;3.00;2.00;;;;;11.06;71.65;99558.97;4997969;28;45308;-70
2023/12/31 01:03:48;;;;;;;;;6.00;6.00;;;;;11.08;72.00;99576.28;5036738;28;74565;-70
2023/12/31 01:06:13;;;;;;;;;5.50;5.50;;;;;11.08;71.39;99567.59;5034916;28;72437;-69
2023/12/31 01:08:38;;;;;;;;;7.00;6.25;;;;;11.11;71.75;99555.19;5044897;28;50827;-69
2023/12/31 01:11:04;;;;;;;;;6.50;6.25;;;;;11.13;71.62;99555.13;5027949;28;69602;-70
2023/12/31 01:13:30;;;;;;;;;6.25;6.00;;;;;11.14;71.65;99525.41;5033961;28;46975;-70
2023/12/31 01:15:55;;;;;;;;;6.75;6.00;;;;;11.13;71.44;99523.72;5025821;28;45280;-69
2023/12/31 01:18:21;;;;;;;;;5.00;5.00;;;;;11.12;71.66;99515.03;5028188;28;67620;-69
2023/12/31 01:20:46;;;;;;;;;7.25;5.00;;;;;11.09;71.44;99514.31;5033060;28;73249;-69
2023/12/31 01:23:11;;;;;;;;;7.25;6.00;;;;;11.09;71.26;99511.69;5034961;28;64750;-70
2023/12/31 01:25:37;;;;;;;;;6.00;6.00;;;;;11.09;71.32;99504.69;5022899;28;72899;-69
2023/12/31 01:28:02;;;;;;;;;11.50;10.00;;;;;11.09;71.36;99490.75;5016500;28;62659;-70
2023/12/31 01:30:28;;;;;;;;;23.00;18.50;;;;;11.09;71.32;99488.13;5022486;28;45328;-69
2023/12/31 01:32:54;;;;;;;;;13.50;10.50;;;;;11.08;71.73;99479.41;5036000;28;45952;-70
2023/12/31 01:35:19;;;;;;;;;7.67;6.00;;;;;11.07;71.71;99471.66;4979533;28;1330902;-69
2023/12/31 01:37:45;;;;;;;;;5.75;3.50;;;;;11.08;71.26;99484.66;5038457;28;45590;-69
2023/12/31 01:40:11;;;;;;;;;5.25;4.25;;;;;11.07;71.32;99469.88;5040425;28;45504;-69
2023/12/31 01:42:37;;;;;;;;;5.50;4.00;;;;;11.07;71.11;99458.56;5024947;28;45266;-69
2023/12/31 01:45:03;;;;;;;;;5.50;5.00;;;;;11.06;71.23;99438.53;5022340;28;73541;-69
2023/12/31 01:47:29;;;;;;;;;8.00;5.00;;;;;11.08;71.19;99439.31;5027694;28;45270;-69
2023/12/31 01:49:55;;;;;;;;;9.50;6.00;;;;;11.07;71.24;99438.47;5021392;28;45250;-69
2023/12/31 01:52:22;;;;;;;;;8.00;6.00;;;;;11.06;71.19;99446.41;5035080;28;72988;-69
2023/12/31 01:54:47;;;;;;;;;4.50;3.00;;;;;11.06;70.94;99426.28;5034052;28;45890;-70
2023/12/31 01:57:14;;;;;;;;;5.50;5.00;;;;;11.05;71.13;99435.09;5029846;28;45462;-69
2023/12/31 01:59:40;;;;;;;;;5.25;4.00;;;;;11.05;70.87;99429.84;5029887;28;47298;-70
2023/12/31 02:02:05;;;;;;;;;9.00;7.00;;;;;11.07;70.94;99421.91;5017251;28;46369;-69
2023/12/31 02:04:33;;;;;;;;;8.75;5.75;;;;;11.08;70.96;99420.97;5037199;28;71882;-69
2023/12/31 02:06:59;;;;;;;;;6.00;4.00;;;;;11.09;70.69;99401.75;5034890;28;45247;-69
2023/12/31 02:09:25;;;;;;;;;7.25;6.25;;;;;11.09;70.79;99384.25;5022144;28;48351;-69
2023/12/31 02:11:50;;;;;;;;;5.00;4.75;;;;;11.10;70.47;99383.34;5023427;28;45326;-69
2023/12/31 02:14:16;;;;;;;;;7.75;7.25;;;;;11.11;70.28;99381.56;5023114;28;70551;-69
2023/12/31 02:16:41;;;;;;;;;9.50;6.00;;;;;11.10;70.62;99375.47;5037027;28;45209;-70
2023/12/31 02:19:06;;;;;;;;;30.25;29.25;;;;;11.12;70.69;99380.63;5034785;28;73248;-69
2023/12/31 02:21:32;;;;;;;;;32.25;23.00;;;;;11.11;70.58;99373.72;5020558;28;46053;-70
2023/12/31 02:23:57;;;;;;;;;6.25;6.00;;;;;11.13;70.33;99374.47;5015644;28;64420;-71
2023/12/31 02:26:24;;;;;;;;;6.00;3.25;;;;;11.14;70.32;99363.91;5012869;28;61428;-70
2023/12/31 02:28:49;;;;;;;;;4.50;4.50;;;;;11.12;70.50;99336.09;5039471;28;45361;-71
2023/12/31 02:31:15;;;;;;;;;5.00;5.00;;;;;11.10;69.88;99317.03;5028127;28;75666;-71
2023/12/31 02:33:40;;;;;;;;;5.00;4.00;;;;;11.07;70.38;99325.06;5029502;28;45311;-72
2023/12/31 02:36:06;;;;;;;;;6.00;4.00;;;;;11.03;70.30;99334.84;5040523;28;54783;-71
2023/12/31 02:38:31;;;;;;;;;5.00;5.00;;;;;11.04;70.29;99327.81;5038303;28;45550;-71
2023/12/31 02:40:56;;;;;;;;;4.25;3.50;;;;;11.04;70.33;99319.97;5028606;28;47014;-70
2023/12/31 02:43:22;;;;;;;;;5.00;4.00;;;;;11.05;70.29;99308.56;5040372;28;45273;-69
2023/12/31 02:45:47;;;;;;;;;5.50;4.50;;;;;11.06;70.43;99311.09;5024035;28;56690;-68
2023/12/31 02:48:12;;;;;;;;;4.25;4.25;;;;;11.06;69.80;99307.66;5013605;28;70448;-68
2023/12/31 02:50:38;;;;;;;;;6.00;4.00;;;;;11.05;70.22;99316.41;5035723;28;49151;-68
2023/12/31 02:53:03;;;;;;;;;4.75;3.75;;;;;11.08;70.00;99308.41;5020240;28;72185;-68
2023/12/31 02:55:28;;;;;;;;;4.75;3.75;;;;;11.10;70.11;99310.03;5037590;28;45814;-70
2023/12/31 02:57:54;;;;;;;;;6.75;3.75;;;;;11.14;70.03;99327.25;5034101;28;45413;-70
2023/12/31 03:00:19;;;;;;;;;4.25;3.50;;;;;11.16;70.04;99324.56;5037469;28;71994;-71
2023/12/31 03:02:45;;;;;;;;;4.25;4.25;;;;;11.19;69.64;99306.94;5040009;28;46350;-71
2023/12/31 03:05:12;;;;;;;;;5.75;4.00;;;;;11.23;69.59;99307.59;5027424;28;45468;-70
2023/12/31 03:07:37;;;;;;;;;6.00;3.00;;;;;11.26;69.57;99307.47;5039198;28;45404;-69
2023/12/31 03:10:03;;;;;;;;;4.00;4.00;;;;;11.28;69.08;99278.53;5026756;28;45312;-68
2023/12/31 03:12:28;;;;;;;;;3.00;3.00;;;;;11.32;69.18;99307.13;5011751;28;45414;-69
2023/12/31 03:14:57;;;;;;;;;3.00;3.00;;;;;11.34;68.70;99286.09;5020102;28;69143;-69
2023/12/31 03:17:22;;;;;;;;;2.50;2.50;;;;;11.37;68.73;99283.31;5025817;28;45501;-69
2023/12/31 03:19:48;;;;;;;;;5.75;3.50;;;;;11.39;69.06;99291.94;5002226;28;46130;-69
2023/12/31 03:22:14;;;;;;;;;5.50;3.50;;;;;11.42;68.62;99293.53;5028721;28;45326;-69
2023/12/31 03:24:41;;;;;;;;;4.00;4.00;;;;;11.45;68.72;99270.63;5025985;28;45161;-69
2023/12/31 03:27:07;;;;;;;;;4.00;3.50;;;;;11.47;69.05;99249.59;5019858;28;45430;-68
2023/12/31 03:29:33;;;;;;;;;4.50;3.75;;;;;11.49;68.93;99239.88;5036790;28;46187;-69
2023/12/31 03:31:58;;;;;;;;;4.25;4.00;;;;;11.51;69.03;99249.34;5013052;28;70238;-69
2023/12/31 03:34:23;;;;;;;;;4.50;4.00;;;;;11.52;68.97;99240.53;5019063;28;45265;-69
2023/12/31 03:36:49;;;;;;;;;4.00;4.00;;;;;11.54;69.26;99230.84;5026283;28;63864;-69
2023/12/31 03:39:14;;;;;;;;;3.25;3.00;;;;;11.55;68.97;99208.94;5033533;28;46067;-69
2023/12/31 03:41:40;;;;;;;;;4.00;3.50;;;;;11.57;68.83;99204.47;5030416;28;45315;-69
2023/12/31 03:44:05;;;;;;;;;4.50;3.00;;;;;11.59;68.47;99209.63;5038013;28;45588;-69
2023/12/31 03:46:30;;;;;;;;;4.00;3.00;;;;;11.61;68.79;99207.75;5020435;28;71943;-69
2023/12/31 03:48:56;;;;;;;;;2.00;2.00;;;;;11.63;68.86;99210.28;5036766;28;76092;-70
2023/12/31 03:51:21;;;;;;;;;3.50;3.00;;;;;11.65;69.11;99198.81;5038326;28;73872;-69
2023/12/31 03:53:46;;;;;;;;;2.50;2.50;;;;;11.69;68.96;99199.47;5035627;28;45352;-69
2023/12/31 03:56:12;;;;;;;;;3.25;3.25;;;;;11.69;69.41;99178.53;5030967;28;45439;-69
2023/12/31 03:58:37;;;;;;;;;3.00;2.25;;;;;11.71;69.39;99211.56;5020421;28;45668;-69
2023/12/31 04:01:03;;;;;;;;;9.50;7.50;;;;;11.71;69.73;99195.00;5020778;28;45311;-70
2023/12/31 04:03:28;;;;;;;;;8.00;5.50;;;;;11.71;70.57;99203.69;5017279;28;45437;-69
2023/12/31 04:05:54;;;;;;;;;5.00;3.75;;;;;11.72;70.48;99189.69;5030252;28;71256;-69
2023/12/31 04:08:19;;;;;;;;;4.00;2.00;;;;;11.73;69.97;99195.75;5034467;28;57535;-68
2023/12/31 04:10:44;;;;;;;;;2.00;2.00;;;;;11.73;69.94;99207.06;5029393;28;73159;-69
2023/12/31 04:13:10;;;;;;;;;2.00;2.00;;;;;11.73;70.14;99209.69;5035995;28;45270;-69
2023/12/31 04:15:35;;;;;;;;;2.75;2.75;;;;;11.74;69.99;99218.41;5028321;28;72117;-69
2023/12/31 04:18:00;;;;;;;;;2.25;2.00;;;;;11.72;70.48;99225.50;5034050;28;46081;-69
2023/12/31 04:20:26;;;;;;;;;2.50;2.50;;;;;11.72;70.46;99220.25;5017408;28;45334;-69
2023/12/31 04:22:51;;;;;;;;;4.00;2.00;;;;;11.67;69.98;99191.72;5017708;28;69148;-69
2023/12/31 04:25:16;;;;;;;;;2.75;1.75;;;;;11.61;70.76;99178.94;5022037;28;45436;-69
2023/12/31 04:27:44;;;;;;;;;2.00;2.00;;;;;11.57;70.94;99156.47;5037431;28;62365;-69
2023/12/31 04:30:10;;;;;;;;;1.25;1.25;;;;;11.55;70.87;99148.69;5033223;28;45766;-69
2023/12/31 04:32:36;;;;;;;;;2.75;2.00;;;;;11.51;70.74;99143.69;5012794;28;45354;-69
2023/12/31 04:35:02;;;;;;;;;3.50;1.00;;;;;11.50;70.53;99145.47;5024268;28;45500;-69
2023/12/31 04:37:27;;;;;;;;;1.00;1.00;;;;;11.48;70.46;99175.34;5026829;28;45563;-69
2023/12/31 04:39:52;;;;;;;;;1.25;1.00;;;;;11.44;70.19;99171.16;5025618;28;45453;-69
2023/12/31 04:42:18;;;;;;;;;0.50;0.50;;;;;11.39;69.64;99164.41;5027270;28;69396;-69
2023/12/31 04:44:43;;;;;;;;;1.00;0.00;;;;;11.36;69.53;99158.50;5032985;28;45408;-69
2023/12/31 04:47:09;;;;;;;;;6.75;5.25;;;;;11.32;69.30;99136.88;5027960;28;67730;-69
2023/12/31 04:49:34;;;;;;;;;1.25;1.00;;;;;11.27;69.19;99169.50;5026716;28;70730;-70
2023/12/31 04:51:59;;;;;;;;;7.00;5.25;;;;;11.23;69.50;99155.72;5028582;28;46000;-70
2023/12/31 04:54:25;;;;;;;;;1.50;0.00;;;;;11.18;69.05;99173.47;5032278;28;45199;-70
2023/12/31 04:56:50;;;;;;;;;0.00;0.00;;;;;11.15;69.49;99171.00;5037398;28;71706;-69
2023/12/31 04:59:15;;;;;;;;;0.50;0.00;;;;;11.12;69.30;99165.94;5033093;28;45307;-69
2023/12/31 05:01:41;;;;;;;;;0.00;0.00;;;;;11.10;69.09;99183.50;5034909;28;66115;-69
2023/12/31 05:04:06;;;;;;;;;0.00;0.00;;;;;11.06;69.13;99184.59;5023856;28;45211;-69
2023/12/31 05:06:32;;;;;;;;;0.25;0.00;;;;;11.07;69.31;99183.69;5033758;28;70578;-69
2023/12/31 05:08:58;;;;;;;;;0.00;0.00;;;;;11.05;69.08;99181.16;5021594;28;66256;-69
2023/12/31 05:11:25;;;;;;;;;0.00;0.00;;;;;11.02;69.15;99186.53;5037749;28;45487;-69
2023/12/31 05:13:50;;;;;;;;;0.50;0.00;;;;;10.99;69.06;99184.91;4992992;28;45557;-69
2023/12/31 05:16:15;;;;;;;;;0.00;0.00;;;;;10.98;69.16;99188.47;5018106;28;75429;-69
2023/12/31 05:18:43;;;;;;;;;1.00;0.00;;;;;10.97;69.42;99183.31;5010724;28;46257;-69
2023/12/31 05:21:09;;;;;;;;;0.00;0.00;;;;;10.94;69.40;99166.03;5023673;28;45676;-69
2023/12/31 05:23:34;;;;;;;;;0.00;0.00;;;;;10.93;68.81;99171.34;5023137;28;45324;-69
2023/12/31 05:26:00;;;;;;;;;0.00;0.00;;;;;10.91;68.88;99176.66;5038405;28;55171;-70
2023/12/31 05:28:25;;;;;;;;;0.00;0.00;;;;;10.90;68.87;99181.97;5000735;28;45402;-69
2023/12/31 05:30:51;;;;;;;;;0.00;0.00;;;;;10.86;68.36;99168.19;5033126;28;45385;-69
2023/12/31 05:33:16;;;;;;;;;1.75;0.00;;;;;10.83;68.53;99169.19;5041333;28;45573;-69
2023/12/31 05:35:41;;;;;;;;;0.00;0.00;;;;;10.82;68.43;99171.91;5039302;28;73334;-70
2023/12/31 05:38:07;;;;;;;;;0.00;0.00;;;;;10.79;67.81;99161.59;5022043;28;47693;-70
2023/12/31 05:40:32;;;;;;;;;0.00;0.00;;;;;10.76;67.44;99167.81;5039823;28;60080;-70
2023/12/31 05:42:57;;;;;;;;;1.00;0.00;;;;;10.73;67.88;99157.53;5033350;28;62816;-69
2023/12/31 05:45:23;;;;;;;;;0.00;0.00;;;;;10.73;67.75;99156.69;5024344;28;53324;-70
2023/12/31 05:47:48;;;;;;;;;11.50;11.50;;;;;10.71;67.91;99135.00;5030190;28;45463;-69
2023/12/31 05:50:14;;;;;;;;;0.00;0.00;;;;;10.69;67.51;99135.06;5010471;28;68355;-70
2023/12/31 05:52:39;;;;;;;;;0.00;0.00;;;;;10.68;67.15;99111.59;5033501;28;45327;-70
2023/12/31 05:55:05;;;;;;;;;0.25;0.00;;;;;10.64;66.94;99124.00;5021478;28;73390;-69
2023/12/31 05:57:31;;;;;;;;;0.50;0.00;;;;;10.61;67.06;99117.16;5040714;28;45463;-69
2023/12/31 05:59:56;;;;;;;;;0.00;0.00;;;;;10.57;67.16;99112.16;5028043;28;68571;-69
2023/12/31 06:02:22;;;;;;;;;0.00;0.00;;;;;10.51;66.97;99105.50;5021842;28;60526;-69
2023/12/31 06:04:47;;;;;;;;;2.00;0.00;;;;;10.46;67.14;99136.28;5016237;28;45927;-69
2023/12/31 06:07:12;;;;;;;;;0.00;0.00;;;;;10.42;66.93;99132.97;5034159;28;53038;-69
2023/12/31 06:09:38;;;;;;;;;0.00;0.00;;;;;10.36;67.06;99135.94;5034471;28;57882;-70
2023/12/31 06:12:04;;;;;;;;;0.00;0.00;;;;;10.32;67.18;99133.53;5032490;28;63926;-70
2023/12/31 06:14:29;;;;;;;;;0.25;0.00;;;;;10.30;67.20;99151.88;5034866;28;46318;-70
2023/12/31 06:16:54;;;;;;;;;0.00;0.00;;;;;10.28;67.23;99158.97;5028092;28;69230;-70
2023/12/31 06:19:20;;;;;;;;;1.00;0.00;;;;;10.27;67.13;99157.28;5033747;28;55105;-70
2023/12/31 06:21:45;;;;;;;;;0.00;0.00;;;;;10.25;67.31;99166.97;5030318;28;69398;-70
2023/12/31 06:24:10;;;;;;;;;0.00;0.00;;;;;10.25;66.70;99157.38;5030021;28;62577;-69
2023/12/31 06:26:35;;;;;;;;;0.00;0.00;;;;;10.30;66.88;99156.28;5024015;28;65926;-69
2023/12/31 06:29:01;;;;;;;;;0.00;0.00;;;;;10.32;66.76;99188.44;5034648;28;57784;-69
2023/12/31 06:31:26;;;;;;;;;0.00;0.00;;;;;10.33;66.60;99177.91;5028920;28;45477;-70
2023/12/31 06:33:52;;;;;;;;;0.00;0.00;;;;;10.36;65.92;99177.78;5021577;28;75686;-69
2023/12/31 06:36:17;;;;;;;;;0.00;0.00;;;;;10.37;65.75;99189.06;5033308;28;45386;-69
2023/12/31 06:38:43;;;;;;;;;0.00;0.00;;;;;10.37;65.44;99187.28;5038276;28;45350;-69
2023/12/31 06:41:08;;;;;;;;;5.25;5.25;;;;;10.39;65.15;99193.31;5033287;28;45412;-69
2023/12/31 06:43:36;;;;;;;;;1.00;0.00;;;;;10.40;64.85;99199.38;5021763;28;45523;-69
2023/12/31 06:46:03;;;;;;;;;0.00;0.00;;;;;10.39;65.19;99200.28;5033740;28;45738;-69
2023/12/31 06:48:28;;;;;;;;;0.00;0.00;;;;;10.40;65.03;99196.75;5034900;28;45235;-69
2023/12/31 06:50:53;;;;;;;;;0.75;0.00;;;;;10.40;64.93;99213.28;5033218;28;45609;-70
2023/12/31 06:53:19;;;;;;;;;0.75;0.00;;;;;10.40;65.26;99209.84;5038043;28;45246;-69
2023/12/31 06:55:44;;;;;;;;;1.00;0.00;;;;;10.41;64.96;99220.22;5018696;28;45589;-69
2023/12/31 06:58:10;;;;;;;;;0.00;0.00;;;;;10.42;65.03;99226.28;5040320;28;45272;-70
2023/12/31 07:00:35;;;;;;;;;2.00;0.00;;;;;10.40;64.66;99223.75;5032747;28;63324;-68
2023/12/31 07:03:01;;;;;;;;;0.00;0.00;;;;;10.39;64.96;99236.91;5033345;28;60933;-68
2023/12/31 07:05:26;;;;;;;;;0.00;0.00;;;;;10.39;65.11;99242.13;5006308;28;45277;-69
2023/12/31 07:07:52;;;;;;;;;0.00;0.00;;;;;10.40;64.75;99252.50;5021771;28;45627;-69
2023/12/31 07:10:17;;;;;;;;;0.00;0.00;;;;;10.40;64.95;99267.38;5020734;28;45560;-70
2023/12/31 07:12:42;;;;;;;;;0.00;0.00;;;;;10.38;64.79;99271.84;5026125;28;46306;-70
2023/12/31 07:15:09;;;;;;;;;0.00;0.00;;;;;10.37;64.84;99270.13;5020990;28;69525;-69
2023/12/31 07:17:35;;;;;;;;;2.50;0.00;;;;;10.34;64.71;99275.50;5025444;28;45436;-70
2023/12/31 07:20:02;;;;;;;;;0.00;0.00;;;;;10.29;64.98;99288.78;5020086;28;45495;-70
2023/12/31 07:22:28;;;;;;;;;0.00;0.00;;;;;10.23;64.98;99305.63;4986914;28;47691;-70
2023/12/31 07:24:53;;;;;;;;;0.00;0.00;;;;;10.21;64.96;99304.81;5005128;28;72133;-69
2023/12/31 07:27:18;;;;;;;;;0.00;0.00;;;;;10.17;65.05;99313.75;5031788;28;49977;-69
2023/12/31 07:29:44;;;;;;;;;1.00;1.00;;;;;10.14;64.82;99302.59;5033419;28;57739;-69
2023/12/31 07:32:09;;;;;;;;;7.25;6.75;;;;;10.09;65.19;99302.81;5031496;28;46097;-70
2023/12/31 07:34:34;;;;;;;;;7.25;5.00;;;;;10.05;65.21;99314.34;5021933;28;47704;-69
2023/12/31 07:37:00;;;;;;;;;0.00;0.00;;;;;10.01;65.49;99324.09;5024818;28;69723;-69
2023/12/31 07:39:26;;;;;;;;;1.00;0.00;;;;;10.00;65.40;99325.00;5038299;28;45472;-70
2023/12/31 07:41:51;;;;;;;;;0.00;0.00;;;;;9.97;65.62;99321.69;5021899;28;45890;-69
2023/12/31 07:44:18;;;;;;;;;0.25;0.00;;;;;9.95;65.49;99326.13;5023696;28;45434;-70
2023/12/31 07:46:43;;;;;;;;;0.00;0.00;;;;;9.91;65.58;99348.97;5022281;28;45434;-69
2023/12/31 07:49:08;;;;;;;;;1.00;0.00;;;;;9.92;65.63;99362.88;5023592;28;45313;-69
2023/12/31 07:51:34;;;;;;;;;1.00;0.00;;;;;9.93;65.81;99375.03;5019844;28;71756;-69
2023/12/31 07:53:59;;;;;;;;;0.00;0.00;;;;;9.94;65.60;99382.78;5032702;28;52531;-69
2023/12/31 07:56:25;;;;;;;;;0.00;0.00;;;;;9.94;65.82;99390.63;5032960;28;45497;-70
2023/12/31 07:58:50;;;;;;;;;0.00;0.00;;;;;9.97;65.85;99400.09;5037764;28;45365;-68
2023/12/31 08:01:15;;;;;;;;;1.00;0.00;;;;;9.97;65.77;99407.94;5048039;28;45853;-70
2023/12/31 08:03:41;;;;;;;;;0.00;0.00;;;;;10.00;65.72;99410.41;5028292;28;60032;-70
2023/12/31 08:06:06;;;;;;;;;0.50;0.00;;;;;10.03;65.68;99421.56;5020950;28;65562;-70
2023/12/31 08:08:31;;;;;;;;;0.50;0.00;;;;;10.07;65.83;99411.81;5035842;28;55039;-70
2023/12/31 08:10:59;;;;;;;;;0.00;0.00;;;;;10.11;65.44;99426.47;5033458;28;46431;-69
2023/12/31 08:13:24;;;;;;;;;2.25;0.00;;;;;10.15;65.70;99432.41;5009828;28;45753;-70
2023/12/31 08:15:50;;;;;;;;;16.00;12.00;;;;;10.16;65.40;99432.28;4997460;28;45421;-69
2023/12/31 08:18:15;;;;;;;;;2.50;1.25;;;;;10.15;65.53;99432.41;5037086;28;71806;-69
2023/12/31 08:20:41;;;;;;;;;0.75;0.00;;;;;10.12;65.05;99435.97;5022315;28;45448;-69
2023/12/31 08:23:06;;;;;;;;;2.00;0.00;;;;;10.08;64.93;99421.38;5025365;28;45214;-69
2023/12/31 08:25:31;;;;;;;;;2.00;0.00;;;;;10.04;65.14;99430.28;5032036;28;46354;-69
2023/12/31 08:27:57;;;;;;;;;0.00;0.00;;;;;10.05;65.01;99434.56;5030941;28;45666;-69
2023/12/31 08:30:23;;;;;;;;;0.00;0.00;;;;;10.07;65.43;99453.63;5014071;28;46170;-69
2023/12/31 08:32:48;;;;;;;;;0.00;0.00;;;;;10.08;65.18;99444.91;5029313;28;45449;-69
2023/12/31 08:35:14;;;;;;;;;0.00;0.00;;;;;10.09;64.80;99446.56;5024362;28;45369;-69
2023/12/31 08:37:39;;;;;;;;;0.00;0.00;;;;;10.12;65.04;99458.66;5030840;28;66743;-70
2023/12/31 08:40:05;;;;;;;;;0.00;0.00;;;;;10.08;65.33;99457.97;5023555;28;69731;-70
2023/12/31 08:42:31;;;;;;;;;0.75;0.00;;;;;10.05;65.05;99460.72;5038608;28;45407;-69
2023/12/31 08:44:57;;;;;;;;;3.75;0.00;;;;;10.02;65.27;99472.16;5034438;28;45412;-68
2023/12/31 08:47:22;;;;;;;;;0.50;0.00;;;;;10.03;64.80;99473.00;5026953;28;45330;-68
2023/12/31 08:49:48;;;;;;;;;1.25;0.00;;;;;10.00;65.12;99484.41;5028118;28;45264;-68
2023/12/31 08:52:13;;;;;;;;;0.00;0.00;;;;;9.99;65.10;99495.81;5036101;28;45237;-70
2023/12/31 08:54:39;;;;;;;;;1.00;0.00;;;;;9.97;64.95;99509.84;5024219;28;45302;-70
2023/12/31 08:57:05;;;;;;;;;1.75;0.00;;;;;9.95;65.24;99504.72;5036786;28;45289;-69
2023/12/31 08:59:30;;;;;;;;;1.00;1.00;;;;;9.94;65.10;99504.78;5041746;28;45436;-70
2023/12/31 09:01:55;;;;;;;;;0.00;0.00;;;;;9.93;65.04;99501.28;5011828;28;45190;-70
2023/12/31 09:04:21;;;;;;;;;3.00;0.00;;;;;9.93;65.29;99501.28;4996983;28;45325;-70
2023/12/31 09:06:47;;;;;;;;;49.25;37.25;;;;;9.93;65.32;99497.84;5026136;28;45313;-71
2023/12/31 09:09:14;;;;;;;;;17.50;8.75;;;;;9.95;65.44;99515.16;5022839;28;45378;-69
2023/12/31 09:11:39;;;;;;;;;3.75;1.00;;;;;9.98;65.23;99488.88;5027866;28;45664;-69
2023/12/31 09:14:05;;;;;;;;;1.00;0.00;;;;;10.06;64.74;99507.69;5034121;28;45274;-69
2023/12/31 09:16:30;;;;;;;;;1.00;0.00;;;;;10.11;64.77;99511.84;5018659;28;45307;-69
2023/12/31 09:18:55;;;;;;;;;1.50;0.00;;;;;10.20;64.93;99533.22;5036073;28;59735;-70
2023/12/31 09:21:21;;;;;;;;;2.50;1.00;;;;;10.28;64.85;99530.25;5031852;28;45289;-70
2023/12/31 09:23:46;;;;;;;;;1.25;0.00;;;;;10.36;64.60;99530.78;5019974;28;50548;-70
2023/12/31 09:26:12;;;;;;;;;2.25;0.00;;;;;10.40;64.61;99539.34;5011224;28;73015;-70
2023/12/31 09:28:39;;;;;;;;;0.50;0.50;;;;;10.43;64.65;99537.44;5033876;28;46874;-69
2023/12/31 09:31:05;;;;;;;;;27.00;23.50;;;;;10.45;63.77;99535.59;5038469;28;45435;-70
2023/12/31 09:33:30;;;;;;;;;14.75;11.50;;;;;10.47;64.38;99542.53;5014163;28;45439;-70
2023/12/31 09:35:56;;;;;;;;;0.25;0.00;;;;;10.49;63.69;99548.53;5016848;28;45209;-70
2023/12/31 09:38:21;;;;;;;;;4.00;0.50;;;;;10.47;64.05;99553.84;5040033;28;45280;-69
2023/12/31 09:40:47;;;;;;;;;4.00;1.00;;;;;10.48;64.14;99547.69;5038884;28;45739;-70
2023/12/31 09:43:19;;;;;;;;;2.75;0.00;;;;;10.46;63.96;99567.81;5032853;28;63066;-70
2023/12/31 09:45:47;;;;;;;;;7.50;0.50;;;;;10.49;63.93;99564.25;5035323;28;45171;-70
2023/12/31 09:48:15;;;;;;;;;1.00;1.00;;;;;10.51;63.29;99567.63;5020242;28;45365;-69
2023/12/31 09:50:40;;;;;;;;;1.75;1.00;;;;;10.51;64.05;99558.00;5034690;28;45801;-70
2023/12/31 09:53:07;;;;;;;;;1.50;0.00;;;;;10.54;63.93;99554.41;5023624;28;57925;-71
2023/12/31 09:55:34;;;;;;;;;3.00;0.00;;;;;10.55;63.58;99570.03;5037726;28;45479;-71
2023/12/31 09:58:00;;;;;;;;;4.75;2.00;;;;;10.55;63.44;99575.28;5031179;28;45293;-71
2023/12/31 10:00:25;;;;;;;;;3.75;1.00;;;;;10.56;63.49;99574.34;5039785;28;45253;-70
2023/12/31 10:02:54;;;;;;;;;2.50;1.00;;;;;10.59;63.40;99574.22;5038939;28;68999;-70
2023/12/31 10:05:21;;;;;;;;;1.00;0.75;;;;;10.67;63.43;99588.72;5022686;28;45348;-69
2023/12/31 10:07:47;;;;;;;;;1.00;0.00;;;;;10.72;63.04;99591.97;5039621;28;46551;-69
2023/12/31 10:10:14;;;;;;;;;3.00;1.00;;;;;10.73;62.83;99567.47;5028599;28;72017;-69
2023/12/31 10:12:39;;;;;;;;;1.50;1.50;;;;;10.78;62.80;99579.44;5030117;28;45364;-70
2023/12/31 10:15:07;;;;;;;;;5.50;1.00;;;;;10.82;62.57;99567.91;5033543;28;65690;-70
2023/12/31 10:17:33;;;;;;;;;1.75;1.00;;;;;10.87;62.36;99583.41;5034301;28;46453;-71
2023/12/31 10:19:58;;;;;;;;;4.50;1.00;;;;;10.92;62.10;99593.66;5027831;28;60744;-70
2023/12/31 10:22:25;;;;;;;;;2.75;0.50;;;;;10.96;62.27;99582.97;5051781;28;45479;-70
2023/12/31 10:24:51;;;;;;;;;7.00;1.00;;;;;11.07;62.02;99585.06;5038060;28;45476;-70
2023/12/31 10:27:16;;;;;;;;;4.00;2.00;;;;;11.13;61.86;99579.53;5029708;28;45379;-71
2023/12/31 10:29:42;;;;;;;;;1.50;1.50;;;;;11.21;61.68;99581.81;5024745;28;45389;-70
2023/12/31 10:32:07;;;;;;;;;5.75;1.00;;;;;11.25;61.84;99572.03;5003978;28;65449;-71
2023/12/31 10:34:33;;;;;;;;;2.00;0.25;;;;;11.31;61.24;99559.47;5039562;28;63166;-69
2023/12/31 10:37:06;;;;;;;;;2.00;2.00;;;;;11.42;60.45;99571.19;5038501;28;46143;-70
2023/12/31 10:39:32;;;;;;;;;3.00;1.25;;;;;11.50;61.00;99571.66;5039140;28;45763;-69
2023/12/31 10:42:05;;;;;;;;;3.00;2.00;;;;;11.52;60.87;99573.28;5028956;28;45231;-70
2023/12/31 10:44:38;;;;;;;;;6.00;1.00;;;;;11.53;60.28;99561.03;5033737;28;45492;-69
2023/12/31 10:47:09;;;;;;;;;5.50;2.75;;;;;11.55;59.67;99573.13;5028779;28;45385;-71
2023/12/31 10:49:35;;;;;;;;;3.25;2.00;;;;;11.56;59.23;99560.88;5031508;28;45315;-71
2023/12/31 10:52:03;;;;;;;;;6.00;2.00;;;;;11.56;59.58;99560.88;5006212;28;45313;-69
2023/12/31 10:54:48;;;;;;;;;8.50;2.50;;;;;11.59;59.83;99552.88;5030745;28;45357;-70
2023/12/31 10:57:16;;;;;;;;;5.00;3.25;;;;;11.61;59.79;99543.16;5014595;28;45361;-70
2023/12/31 10:59:42;;;;;;;;;4.75;3.00;;;;;11.68;59.12;99543.69;5022480;28;45877;-69
2023/12/31 11:02:21;;;;;;;;;4.25;2.00;;;;;11.74;59.58;99551.25;5022270;28;45468;-69
2023/12/31 11:04:48;;;;;;;;;3.75;2.00;;;;;11.80;59.17;99529.97;5023828;28;45338;-70
2023/12/31 11:07:18;;;;;;;;;4.00;2.00;;;;;11.84;59.04;99543.75;5039498;28;46648;-70
2023/12/31 11:09:47;;;;;;;;;3.50;1.00;;;;;11.87;58.96;99541.00;5032730;28;45335;-69
2023/12/31 11:12:14;;;;;;;;;3.00;0.25;;;;;11.89;58.21;99536.50;5022581;28;45440;-69
2023/12/31 11:14:42;;;;;;;;;3.50;1.75;;;;;11.88;58.53;99543.53;5038548;28;45396;-70
2023/12/31 11:17:22;;;;;;;;;4.25;2.00;;;;;11.88;58.25;99535.66;5029921;28;45233;-69
2023/12/31 11:19:59;;;;;;;;;4.75;3.00;;;;;11.90;57.17;99541.72;5019394;28;45381;-70
2023/12/31 11:22:36;;;;;;;;;8.00;2.50;;;;;11.91;57.72;99550.41;5039426;28;45333;-69
2023/12/31 11:25:03;;;;;;;;;0.75;0.75;;;;;11.92;57.21;99547.72;5005153;28;46788;-69
2023/12/31 11:27:32;;;;;;;;;3.00;1.00;;;;;11.93;57.03;99546.81;5011412;28;45393;-70